Manteo, North Carolina
Current Conditions -  °F | °C
As of 11:15 PM on Thursday 27 Nov 2014 (Local Time) from KMQI Reporting Station
Clear Clear  
Wind Chill: 35°   Ceiling: Unl
Heat Index: 42°   Visibility: 10mi
Dew Point: 34°   Wind: 12mph
Humidity: 74%   Direction: 330°NNW
Pressure: 30.17"   Gusts: 18mph
Location:  35.91°N, 75.68°W
Report Text: KMQI 280415Z AUTO 33010G16KT 10SM CLR 05/01 A3017 RMK AO2 T00530010
Loading
Personal Weather Stations






























Interactive Weather Map New forecast layout! Learn more

10-Day Weather Forecast

Advertisements
Track Severe Weather on mobile